.
WxDataArchive / Data Records for 2013-06-13
2013-06-12 June 2013 2013-06-14

Data Records for Thursday, 13 June 2013

Time	Temp	Chill	HIndex	Humid	Dewpt	 Wind 	HiWind	WindDir	Rain 	Barom 
-----	----	-----	------	-----	-----	------	------	-------	-----	----- 
00:00	66.0	66.0	66.0	94	64.2	0	2	270	0.00	29.652 
00:05	66.1	66.1	66.1	94	64.3	0	1	270	0.01	29.652 
00:10	66.1	66.1	66.1	94	64.3	0	1	270	0.01	29.652 
00:15	66.1	66.1	66.1	94	64.3	0	0	---	0.00	29.638 
00:20	66.1	66.1	66.1	94	64.3	0	0	---	0.01	29.638 
00:25	66.1	66.1	66.1	95	64.6	0	0	---	0.01	29.638 
00:30	66.3	66.3	66.3	95	64.8	0	1	270	0.01	29.623 
00:35	66.3	66.3	66.3	95	64.8	0	1	270	0.01	29.623 
00:40	66.3	66.3	66.3	95	64.8	0	2	270	0.01	29.623 
00:45	66.3	66.3	66.3	95	64.8	0	2	270	0.01	29.631 
00:50	66.1	66.1	66.1	95	64.6	0	3	270	0.00	29.631 
00:55	66.1	66.1	66.1	95	64.6	0	3	270	0.01	29.631 
01:00	66.1	66.1	66.1	95	64.6	0	1	270	0.00	29.616 
01:05	66.1	66.1	66.1	95	64.6	0	1	270	0.00	29.616 
01:10	66.3	66.3	66.3	95	64.8	0	0	---	0.00	29.616 
01:15	66.3	66.3	66.3	95	64.8	0	0	---	0.00	29.616 
01:20	66.3	66.3	66.3	95	64.8	0	0	---	0.00	29.616 
01:25	66.3	66.3	66.3	95	64.8	0	1	270	0.00	29.616 
01:30	66.1	66.1	66.1	95	64.6	0	0	---	0.00	29.567 
01:35	66.1	66.1	66.1	95	64.6	0	0	---	0.00	29.567 
01:40	66.1	66.1	66.1	95	64.6	0	1	270	0.00	29.567 
01:45	66.1	66.1	66.1	95	64.6	0	1	270	0.00	29.586 
01:50	66.1	66.1	66.1	95	64.6	0	0	---	0.00	29.586 
01:55	66.1	66.1	66.1	95	64.6	0	1	270	0.00	29.586 
02:00	66.3	66.3	66.3	96	65.1	0	2	270	0.00	29.608 
02:05	66.3	66.3	66.3	96	65.1	1	3	270	0.00	29.608 
02:10	66.4	66.4	66.4	96	65.2	1	3	270	0.03	29.608 
02:15	66.4	66.4	66.4	96	65.2	2	4	270	0.05	29.633 
02:20	66.3	66.3	66.3	96	65.1	1	4	270	0.01	29.633 
02:25	66.1	66.1	66.1	96	64.9	1	3	270	0.00	29.633 
02:30	66.1	66.1	66.1	96	64.9	1	3	270	0.00	29.645 
02:35	66.1	66.1	66.1	96	64.9	1	4	270	0.00	29.645 
02:40	66.1	66.1	66.1	96	64.9	1	3	270	0.00	29.645 
02:45	66.1	66.1	66.1	96	64.9	0	2	270	0.00	29.636 
02:50	66.1	66.1	66.1	96	64.9	0	1	270	0.00	29.636 
02:55	66.0	66.0	66.0	96	64.8	0	1	270	0.00	29.636 
03:00	66.0	66.0	66.0	96	64.8	0	2	270	0.00	29.584 
03:05	66.0	66.0	66.0	96	64.8	0	2	270	0.00	29.584 
03:10	66.0	66.0	66.0	96	64.8	1	4	270	0.00	29.584 
03:15	65.8	65.8	65.8	96	64.6	1	5	22	0.00	29.483 
03:20	65.8	65.8	65.8	96	64.6	1	5	68	0.00	29.483 
03:25	65.8	65.8	65.8	96	64.6	1	5	68	0.00	29.483 
03:30	65.8	65.8	65.8	96	64.6	0	2	68	0.00	29.490 
03:35	65.8	65.8	65.8	96	64.6	0	2	68	0.00	29.490 
03:40	65.8	65.8	65.8	96	64.6	0	1	68	0.00	29.490 
03:45	65.8	65.8	65.8	96	64.6	0	1	68	0.00	29.532 
03:50	65.8	65.8	65.8	96	64.6	1	2	68	0.00	29.532 
03:55	65.8	65.8	65.8	96	64.6	1	2	68	0.00	29.532 
04:00	65.6	65.6	65.6	96	64.4	1	3	68	0.00	29.551 
04:05	65.6	65.6	65.6	96	64.4	1	2	68	0.00	29.551 
04:10	65.6	65.6	65.6	96	64.4	0	1	68	0.00	29.551 
04:15	65.6	65.6	65.6	96	64.4	1	3	68	0.00	29.568 
04:20	65.6	65.6	65.6	96	64.4	1	3	315	0.00	29.568 
04:25	65.6	65.6	65.6	96	64.4	2	4	270	0.00	29.568 
04:30	65.6	65.6	65.6	96	64.4	2	3	270	0.00	29.591 
04:35	65.5	65.5	65.5	96	64.3	2	3	270	0.00	29.591 
04:40	65.5	65.5	65.5	96	64.3	2	3	270	0.00	29.591 
04:45	65.3	65.3	65.3	96	64.1	2	3	270	0.00	29.609 
04:50	65.2	65.2	65.2	96	64.0	2	3	270	0.00	29.609 
04:55	65.2	65.2	65.2	96	64.0	1	2	270	0.00	29.609 
05:00	65.0	65.0	65.0	96	63.8	0	2	270	0.00	29.614 
05:05	65.0	65.0	65.0	96	63.8	1	2	270	0.00	29.614 
05:10	64.8	64.8	64.8	96	63.6	0	2	270	0.00	29.614 
05:15	64.8	64.8	64.8	96	63.6	1	3	270	0.00	29.625 
05:20	64.8	64.8	64.8	96	63.6	1	3	270	0.01	29.625 
05:25	64.7	64.7	64.7	96	63.5	1	2	270	0.00	29.625 
05:30	64.7	64.7	64.7	96	63.5	1	2	270	0.00	29.619 
05:35	64.5	64.5	64.5	96	63.3	1	2	270	0.00	29.619 
05:40	64.5	64.5	64.5	96	63.3	1	3	270	0.00	29.619 
05:45	64.3	64.3	64.3	96	63.1	1	3	270	0.00	29.627 
05:50	64.3	64.3	64.3	96	63.1	1	2	270	0.00	29.627 
05:55	64.3	64.3	64.3	96	63.1	0	2	270	0.00	29.627 
06:00	64.3	64.3	64.3	96	63.1	0	3	270	0.00	29.624 
06:05	64.3	64.3	64.3	96	63.1	1	2	270	0.00	29.624 
06:10	64.3	64.3	64.3	96	63.1	1	2	270	0.00	29.624 
06:15	64.3	64.3	64.3	96	63.1	1	4	270	0.00	29.619 
06:20	64.3	64.3	64.3	96	63.1	1	3	315	0.00	29.619 
06:25	64.3	64.3	64.3	96	63.1	1	3	315	0.00	29.619 
06:30	64.3	64.3	64.3	96	63.1	0	2	315	0.00	29.617 
06:35	64.3	64.3	64.3	96	63.1	0	2	315	0.00	29.617 
06:40	64.3	64.3	64.3	96	63.1	1	4	315	0.00	29.617 
06:45	64.3	64.3	64.3	96	63.1	1	3	315	0.00	29.617 
06:50	64.3	64.3	64.3	96	63.1	1	3	315	0.00	29.617 
06:55	64.3	64.3	64.3	96	63.1	1	4	315	0.00	29.617 
07:00	64.5	64.5	64.5	96	63.3	1	4	292	0.00	29.624 
07:05	64.5	64.5	64.5	96	63.3	2	4	292	0.00	29.624 
07:10	64.5	64.5	64.5	96	63.3	1	3	315	0.00	29.624 
07:15	64.5	64.5	64.5	96	63.3	1	3	315	0.00	29.630 
07:20	64.5	64.5	64.5	96	63.3	1	4	315	0.00	29.630 
07:25	64.5	64.5	64.5	96	63.3	1	3	315	0.00	29.630 
07:30	64.5	64.5	64.5	96	63.3	0	2	315	0.00	29.633 
07:35	64.7	64.7	64.7	96	63.5	0	3	315	0.00	29.633 
07:40	65.2	65.2	65.2	96	64.0	0	2	315	0.00	29.633 
07:45	65.3	65.3	65.3	96	64.1	1	5	270	0.00	29.649 
07:50	65.3	65.3	65.3	96	64.1	1	4	270	0.00	29.649 
07:55	65.5	65.5	65.5	96	64.3	1	4	270	0.00	29.649 
08:00	65.6	65.6	65.6	96	64.4	1	3	270	0.00	29.661 
08:05	65.5	65.5	65.5	95	64.0	1	3	270	0.00	29.661 
08:10	65.5	65.5	65.5	95	64.0	1	4	292	0.00	29.661 
08:15	65.5	65.5	65.5	95	64.0	1	4	315	0.00	29.673 
08:20	65.5	65.5	65.5	95	64.0	0	2	292	0.00	29.673 
08:25	65.6	65.6	65.6	95	64.1	0	2	292	0.00	29.673 
08:30	65.6	65.6	65.6	94	63.8	0	3	292	0.00	29.681 
08:35	65.3	65.3	65.3	94	63.5	3	7	315	0.00	29.681 
08:40	65.3	65.3	65.3	93	63.2	1	4	292	0.00	29.681 
08:45	65.2	65.2	65.2	93	63.1	1	3	292	0.00	29.693 
08:50	64.8	64.8	64.8	92	62.4	1	5	315	0.00	29.693 
08:55	64.5	64.5	64.5	91	61.8	1	4	338	0.00	29.693 
09:00	64.3	64.3	64.3	88	60.7	1	4	270	0.00	29.709 
09:05	64.2	64.2	64.2	85	59.6	1	4	292	0.00	29.709 
09:10	64.7	64.7	64.7	83	59.4	1	5	135	0.00	29.709 
09:15	64.7	64.7	64.7	80	58.4	1	3	135	0.00	29.717 
09:20	64.5	64.5	64.5	78	57.5	1	2	270	0.00	29.717 
09:25	64.5	64.5	64.5	77	57.1	0	2	202	0.00	29.717 
09:30	64.3	64.3	64.3	77	56.9	0	2	202	0.00	29.720 
09:35	64.2	64.2	64.2	75	56.1	0	1	292	0.00	29.720 
09:40	64.2	64.2	64.2	74	55.7	1	5	135	0.00	29.720 
09:45	64.2	64.2	64.2	75	56.1	1	4	292	0.00	29.733 
09:50	64.2	64.2	64.2	75	56.1	1	3	315	0.00	29.733 
09:55	64.3	64.3	64.3	76	56.6	1	4	315	0.00	29.733 
10:00	64.3	64.3	64.3	75	56.2	0	2	270	0.00	29.742 
10:05	64.5	64.5	64.5	76	56.8	0	2	270	0.00	29.742 
10:10	64.5	64.5	64.5	75	56.4	1	3	270	0.00	29.742 
10:15	64.7	64.7	64.7	74	56.2	1	5	270	0.00	29.757 
10:20	64.8	64.8	64.8	74	56.3	1	3	292	0.00	29.757 
10:25	65.2	65.2	65.2	74	56.7	1	3	292	0.00	29.757 
10:30	65.5	65.5	65.5	74	57.0	1	4	315	0.00	29.757 
10:35	65.8	65.8	65.8	73	56.9	1	2	315	0.00	29.757 
10:40	66.0	66.0	66.0	73	57.1	0	2	315	0.00	29.757 
10:45	66.4	66.4	66.4	72	57.1	1	4	315	0.00	29.771 
10:50	67.4	67.4	67.4	71	57.7	2	6	292	0.00	29.771 
10:55	68.1	68.1	68.1	69	57.5	1	7	315	0.00	29.771 
11:00	68.6	68.6	68.6	69	58.0	1	3	315	0.00	29.770 
11:05	68.8	68.8	68.8	67	57.4	3	9	292	0.00	29.770 
11:10	69.1	69.1	69.1	66	57.3	2	7	338	0.00	29.770 
11:15	69.4	69.4	69.4	68	58.4	2	5	315	0.00	29.772 
11:20	69.6	69.6	69.6	65	57.3	2	4	315	0.00	29.772 
11:25	70.3	70.3	70.3	65	58.0	2	5	292	0.00	29.772 
11:30	70.6	70.6	70.6	62	56.9	2	7	315	0.00	29.774 
11:35	70.9	70.9	70.9	61	56.8	2	5	315	0.00	29.774 
11:40	71.3	71.3	71.3	61	57.1	2	5	315	0.00	29.774 
11:45	71.5	71.5	71.5	61	57.3	2	7	338	0.00	29.776 
11:50	71.8	71.8	71.8	58	56.2	3	9	315	0.00	29.776 
11:55	71.8	71.8	71.8	58	56.2	2	4	292	0.00	29.776 
12:00	72.3	72.3	72.3	60	57.6	2	5	292	0.00	29.783 
12:05	72.7	72.7	72.7	55	55.6	3	6	315	0.00	29.783 
12:10	72.7	72.7	72.7	54	55.1	2	6	338	0.00	29.783 
12:15	73.0	73.0	73.0	55	55.9	2	5	338	0.00	29.784 
12:20	73.3	73.3	73.3	56	56.6	1	4	292	0.00	29.784 
12:25	73.5	73.5	73.5	56	56.8	2	6	315	0.00	29.784 
12:30	73.7	73.7	73.7	53	55.5	3	6	292	0.00	29.784 
12:35	73.7	73.7	73.7	54	56.0	2	5	338	0.00	29.784 
12:40	73.9	73.9	73.9	53	55.7	2	6	338	0.00	29.784 
12:45	73.7	73.7	73.7	51	54.4	3	6	338	0.00	29.785 
12:50	73.9	73.9	73.9	51	54.6	3	7	315	0.00	29.785 
12:55	74.2	74.2	74.2	52	55.4	2	6	315	0.00	29.785 
13:00	74.4	74.4	74.4	50	54.5	3	6	315	0.00	29.787 
13:05	74.4	74.4	74.4	52	55.6	2	5	315	0.00	29.787 
13:10	74.7	74.7	74.7	50	54.8	2	7	338	0.00	29.787 
13:15	74.9	74.9	74.9	49	54.4	3	6	338	0.00	29.791 
13:20	75.1	75.1	77.7	50	55.2	3	10	338	0.00	29.791 
13:25	75.3	75.3	77.7	49	54.8	3	7	270	0.00	29.791 
13:30	75.3	75.3	77.7	45	52.5	3	9	292	0.00	29.794 
13:35	75.3	75.3	77.7	47	53.7	4	7	292	0.00	29.794 
13:40	75.3	75.3	77.7	46	53.1	2	7	338	0.00	29.794 
13:45	75.1	75.1	77.7	47	53.5	2	4	315	0.00	29.793 
13:50	75.6	75.6	77.9	48	54.5	3	7	292	0.00	29.793 
13:55	75.8	75.8	77.8	43	51.7	3	7	315	0.00	29.793 
14:00	76.1	76.1	78.0	46	53.8	2	6	270	0.00	29.790 
14:05	76.1	76.1	77.9	40	50.0	4	7	338	0.00	29.790 
14:10	76.1	76.1	77.9	40	50.0	3	7	292	0.00	29.790 
14:15	76.1	76.1	77.9	42	51.3	3	9	338	0.00	29.796 
14:20	76.3	76.3	78.0	43	52.1	3	7	292	0.00	29.796 
14:25	76.3	76.3	78.1	45	53.4	3	7	292	0.00	29.796 
14:30	76.3	76.3	78.0	43	52.1	3	8	292	0.00	29.797 
14:35	76.5	76.5	78.1	42	51.7	3	8	315	0.00	29.797 
14:40	76.8	76.8	78.3	44	53.2	2	7	315	0.00	29.797 
14:45	77.2	77.2	78.5	44	53.6	2	6	292	0.00	29.797 
14:50	76.8	76.8	78.2	41	51.3	3	7	0	0.00	29.797 
14:55	76.8	76.8	78.3	43	52.6	3	10	292	0.00	29.797 
15:00	77.0	77.0	78.2	39	50.1	4	9	315	0.00	29.809 
15:05	77.0	77.0	78.2	40	50.8	3	7	315	0.00	29.809 
15:10	77.0	77.0	78.2	39	50.1	3	6	315	0.00	29.809 
15:15	77.0	77.0	78.3	41	51.5	3	9	338	0.00	29.811 
15:20	77.2	77.2	78.2	38	49.6	4	7	292	0.00	29.811 
15:25	77.4	77.4	78.5	41	51.8	3	8	338	0.00	29.811 
15:30	77.2	77.2	78.4	41	51.7	3	7	315	0.00	29.813 
15:35	76.8	76.8	78.2	41	51.3	2	4	315	0.00	29.813 
15:40	77.4	77.4	78.4	40	51.2	3	9	292	0.00	29.813 
15:45	77.7	77.7	78.5	38	50.0	4	7	292	0.00	29.812 
15:50	77.7	77.7	78.3	36	48.6	4	11	292	0.00	29.812 
15:55	77.7	77.7	78.5	39	50.7	4	11	292	0.00	29.812 
16:00	78.1	78.1	78.6	37	49.7	3	5	292	0.00	29.814 
16:05	77.9	77.9	78.7	40	51.6	4	11	292	0.00	29.814 
16:10	77.9	77.9	78.6	39	50.9	2	5	292	0.00	29.814 
16:15	77.9	77.9	78.5	37	49.5	3	7	292	0.00	29.815 
16:20	77.9	77.9	78.5	37	49.5	4	8	292	0.00	29.815 
16:25	78.1	78.1	78.8	40	51.8	3	9	292	0.00	29.815 
16:30	78.3	78.3	78.8	38	50.6	3	9	338	0.00	29.816 
16:35	78.1	78.1	78.7	38	50.4	4	7	315	0.00	29.816 
16:40	78.1	78.1	78.8	40	51.8	2	6	315	0.00	29.816 
16:45	78.1	78.1	78.7	39	51.1	3	7	292	0.00	29.819 
16:50	77.9	77.9	78.4	36	48.8	4	7	292	0.00	29.819 
16:55	77.7	77.7	78.6	40	51.4	2	7	338	0.00	29.819 
17:00	77.7	77.7	78.7	42	52.8	1	4	270	0.00	29.827 
17:05	78.3	78.3	78.8	38	50.6	3	10	292	0.00	29.827 
17:10	77.9	77.9	78.6	39	50.9	2	6	292	0.00	29.827 
17:15	78.1	78.1	78.8	41	52.5	2	5	338	0.00	29.826 
17:20	77.9	77.9	78.6	38	50.2	3	6	315	0.00	29.826 
17:25	78.1	78.1	78.8	41	52.5	3	9	292	0.00	29.826 
17:30	77.7	77.7	78.5	38	50.0	4	9	292	0.00	29.829 
17:35	77.4	77.4	78.5	41	51.8	1	4	292	0.00	29.829 
17:40	78.1	78.1	78.9	42	53.1	2	5	292	0.00	29.829 
17:45	77.9	77.9	78.8	42	52.9	2	5	315	0.00	29.826 
17:50	77.6	77.6	78.6	42	52.7	3	7	315	0.00	29.826 
17:55	77.7	77.7	78.7	42	52.8	2	5	315	0.00	29.826 
18:00	77.7	77.7	78.7	42	52.8	2	5	338	0.00	29.827 
18:05	77.2	77.2	78.4	42	52.3	3	6	315	0.00	29.827 
18:10	76.7	76.7	78.3	45	53.7	2	5	338	0.00	29.827 
18:15	76.5	76.5	78.3	48	55.3	3	7	270	0.00	29.830 
18:20	76.0	76.0	78.1	50	56.0	4	11	292	0.00	29.830 
18:25	76.0	76.0	78.1	50	56.0	4	8	292	0.00	29.830 
18:30	75.8	75.8	78.0	49	55.3	5	14	292	0.00	29.832 
18:35	75.4	75.4	77.8	50	55.4	4	7	315	0.00	29.832 
18:40	75.3	75.3	77.7	50	55.4	4	11	315	0.00	29.832 
18:45	74.9	74.9	74.9	50	55.0	3	9	292	0.00	29.841 
18:50	74.6	74.6	74.6	49	54.2	4	9	292	0.00	29.841 
18:55	74.2	74.2	74.2	48	53.2	5	9	315	0.00	29.841 
19:00	73.9	73.9	73.9	47	52.4	4	10	292	0.00	29.847 
19:05	73.7	73.7	73.7	49	53.3	4	7	315	0.00	29.847 
19:10	73.7	73.7	73.7	50	53.9	3	7	292	0.00	29.847 
19:15	73.5	73.5	73.5	50	53.7	3	6	292	0.00	29.846 
19:20	73.3	73.3	73.3	50	53.5	3	9	270	0.00	29.846 
19:25	72.8	72.8	72.8	50	53.1	3	7	315	0.00	29.846 
19:30	72.5	72.5	72.5	50	52.8	3	7	248	0.00	29.855 
19:35	72.5	72.5	72.5	50	52.8	2	5	248	0.00	29.855 
19:40	72.1	72.1	72.1	49	51.9	3	6	270	0.00	29.855 
19:45	72.0	72.0	72.0	50	52.3	3	5	315	0.00	29.862 
19:50	71.8	71.8	71.8	50	52.1	2	6	270	0.00	29.862 
19:55	71.6	71.6	71.6	52	53.0	2	4	292	0.00	29.862 
20:00	71.5	71.5	71.5	53	53.5	1	4	315	0.00	29.867 
20:05	71.1	71.1	71.1	53	53.1	2	7	315	0.00	29.867 
20:10	70.8	70.8	70.8	52	52.3	3	9	270	0.00	29.867 
20:15	70.4	70.4	70.4	52	51.9	3	6	270	0.00	29.875 
20:20	70.1	70.1	70.1	52	51.6	3	6	315	0.00	29.875 
20:25	69.8	69.8	69.8	53	51.9	3	6	292	0.00	29.875 
20:30	69.4	69.4	69.4	54	52.0	3	5	315	0.00	29.879 
20:35	69.1	69.1	69.1	55	52.2	3	5	315	0.00	29.879 
20:40	68.8	68.8	68.8	56	52.5	3	7	315	0.00	29.879 
20:45	68.4	68.4	68.4	57	52.6	2	6	270	0.00	29.883 
20:50	68.1	68.1	68.1	58	52.8	2	4	292	0.00	29.883 
20:55	67.9	67.9	67.9	58	52.6	2	5	270	0.00	29.883 
21:00	67.6	67.6	67.6	58	52.3	1	3	315	0.00	29.885 
21:05	67.4	67.4	67.4	59	52.6	2	5	315	0.00	29.885 
21:10	67.3	67.3	67.3	59	52.5	1	4	292	0.00	29.885 
21:15	66.9	66.9	66.9	59	52.1	1	4	292	0.00	29.891 
21:20	66.8	66.8	66.8	60	52.5	1	4	292	0.00	29.891 
21:25	66.6	66.6	66.6	59	51.8	2	4	292	0.00	29.891 
21:30	66.4	66.4	66.4	60	52.1	2	4	292	0.00	29.894 
21:35	66.3	66.3	66.3	60	52.0	2	5	292	0.00	29.894 
21:40	66.1	66.1	66.1	60	51.8	1	4	315	0.00	29.894 
21:45	66.0	66.0	66.0	60	51.7	2	4	315	0.00	29.898 
21:50	65.8	65.8	65.8	60	51.5	1	2	315	0.00	29.898 
21:55	65.6	65.6	65.6	61	51.8	0	2	315	0.00	29.898 
22:00	65.3	65.3	65.3	62	51.9	1	3	315	0.00	29.909 
22:05	65.2	65.2	65.2	62	51.8	2	4	270	0.00	29.909 
22:10	65.0	65.0	65.0	62	51.7	1	3	270	0.00	29.909 
22:15	65.0	65.0	65.0	63	52.1	2	4	292	0.00	29.910 
22:20	64.8	64.8	64.8	63	51.9	1	2	270	0.00	29.910 
22:25	64.5	64.5	64.5	64	52.0	1	3	270	0.00	29.910 
22:30	64.5	64.5	64.5	64	52.0	1	2	270	0.00	29.914 
22:35	64.3	64.3	64.3	64	51.9	1	3	270	0.00	29.914 
22:40	64.2	64.2	64.2	65	52.2	1	3	270	0.00	29.914 
22:45	64.0	64.0	64.0	65	52.0	1	3	270	0.00	29.916 
22:50	63.9	63.9	63.9	65	51.9	1	3	270	0.00	29.916 
22:55	63.7	63.7	63.7	66	52.1	1	3	270	0.00	29.916 
23:00	63.7	63.7	63.7	66	52.1	2	4	315	0.00	29.920 
23:05	63.5	63.5	63.5	66	51.9	1	3	315	0.00	29.920 
23:10	63.5	63.5	63.5	66	51.9	1	3	315	0.00	29.920 
23:15	63.5	63.5	63.5	67	52.3	1	5	315	0.00	29.925 
23:20	63.5	63.5	63.5	67	52.3	1	3	315	0.00	29.925 
23:25	63.4	63.4	63.4	67	52.2	1	3	315	0.00	29.925 
23:30	63.4	63.4	63.4	67	52.2	2	4	315	0.00	29.928 
23:35	63.2	63.2	63.2	67	52.1	1	3	315	0.00	29.928 
23:40	63.1	63.1	63.1	68	52.4	1	3	315	0.00	29.928 
23:45	62.7	62.7	62.7	68	52.0	1	5	315	0.00	29.928 
23:50	62.7	62.7	62.7	69	52.4	1	4	292	0.00	29.928 
23:55	62.6	62.6	62.6	69	52.3	1	3	292	0.00	29.928 

CoCoRaHS
IN-AL-39
A2 Web Hosting
Creative Commons License
GoDaddy
search engine by freefind advanced

loaded 2018-11-13 01:45:44 • last modified 2010-11-18 10:43:29
Privacy PolicyDisclaimer
• wx.awcolley.com is powered by PmWiki v.2002016 •
• all content (unless otherwise noted) © 2018 A W Colley